Terminal Aerodrome Forecast
Issued by NWS Hastings, NE

Home | Current Version | Previous Version | Text Only | Print | Product List | Glossary On
Versions: 1 2 3 4 5 6 7 8 9 10 11 12 13 14 15 16 17 18 19 20
000
FTUS43 KGID 011739
TAFGRI
TAF
KGRI 011739Z 0118/0218 31023G30KT P6SM FEW025
     FM020000 31013KT P6SM SKC
     FM020600 28010KT P6SM SCT250 WS015/32045KT
     FM021400 31015G23KT P6SM SCT250=

USA.gov is the U.S. government's official web portal to all federal, state and local government web resources and services.